createdAt,value
2023-04-15T00:00:58.560Z,4.40
2023-04-15T00:03:25.740Z,4.53
2023-04-15T00:05:52.731Z,4.40
2023-04-15T00:08:20.608Z,4.38
2023-04-15T00:10:47.870Z,4.28
2023-04-15T00:13:15.531Z,4.40
2023-04-15T00:15:43.294Z,4.57
2023-04-15T00:18:10.542Z,4.53
2023-04-15T00:20:37.773Z,4.38
2023-04-15T00:23:05.723Z,4.15
2023-04-15T00:25:33.037Z,4.18
2023-04-15T00:27:59.990Z,4.25
2023-04-15T00:30:26.896Z,4.80
2023-04-15T00:32:53.896Z,4.53
2023-04-15T00:35:24.046Z,4.50
2023-04-15T00:37:51.522Z,4.10
2023-04-15T00:40:21.027Z,4.30
2023-04-15T00:42:47.966Z,4.72
2023-04-15T00:45:15.663Z,4.60
2023-04-15T00:47:44.029Z,4.90
2023-04-15T00:50:12.693Z,4.63
2023-04-15T00:52:40.769Z,5.00
2023-04-15T00:55:09.018Z,4.72
2023-04-15T00:57:36.779Z,4.70
2023-04-15T01:00:05.678Z,4.72
2023-04-15T01:02:33.465Z,4.80
2023-04-15T01:05:02.624Z,4.75
2023-04-15T01:07:29.443Z,4.85
2023-04-15T01:09:56.880Z,5.10
2023-04-15T01:12:26.441Z,5.20
2023-04-15T01:14:57.277Z,5.20
2023-04-15T01:17:25.475Z,5.90
2023-04-15T01:19:52.808Z,5.28
2023-04-15T01:22:19.757Z,5.35
2023-04-15T01:25:06.274Z,5.20
2023-04-15T01:27:35.444Z,5.40
2023-04-15T01:30:05.309Z,5.30
2023-04-15T01:32:32.991Z,5.13
2023-04-15T01:35:00.051Z,5.32
2023-04-15T01:37:27.513Z,5.10
2023-04-15T01:39:54.362Z,5.93
2023-04-15T01:42:22.912Z,5.40
2023-04-15T01:44:49.702Z,5.93
2023-04-15T01:47:16.527Z,5.53
2023-04-15T01:49:43.338Z,5.50
2023-04-15T01:52:10.428Z,6.43
2023-04-15T01:54:37.414Z,5.80
2023-04-15T01:57:05.503Z,6.13
2023-04-15T01:59:32.441Z,5.70
2023-04-15T02:02:00.069Z,5.75
2023-04-15T02:04:28.003Z,5.90
2023-04-15T02:06:54.915Z,6.25
2023-04-15T02:09:21.870Z,5.97
2023-04-15T02:11:48.878Z,6.25
2023-04-15T02:14:15.749Z,5.82
2023-04-15T02:16:42.571Z,6.35
2023-04-15T02:19:09.687Z,6.00
2023-04-15T02:21:38.201Z,5.82
2023-04-15T02:24:05.471Z,6.10
2023-04-15T02:26:33.487Z,6.22
2023-04-15T02:29:00.719Z,6.50
2023-04-15T02:31:27.852Z,5.93
2023-04-15T02:33:54.891Z,6.25
2023-04-15T02:36:22.058Z,6.28
2023-04-15T02:38:48.959Z,6.43
2023-04-15T02:41:16.776Z,6.30
2023-04-15T02:43:45.479Z,6.20
2023-04-15T02:46:14.842Z,6.30
2023-04-15T02:48:42.116Z,6.30
2023-04-15T02:51:21.400Z,5.80
2023-04-15T02:53:49.371Z,5.85
2023-04-15T02:56:17.223Z,6.33
2023-04-15T02:58:50.637Z,6.15
2023-04-15T03:01:17.723Z,5.83
2023-04-15T03:03:44.958Z,6.60
2023-04-15T03:06:12.234Z,6.13
2023-04-15T03:08:39.103Z,6.50
2023-04-15T03:11:06.483Z,6.63
2023-04-15T03:13:33.969Z,6.80
2023-04-15T03:16:07.738Z,7.33
2023-04-15T03:18:34.569Z,6.85
2023-04-15T03:21:03.494Z,7.05
2023-04-15T03:23:33.672Z,7.00
2023-04-15T03:26:04.420Z,7.10
2023-04-15T03:28:32.939Z,7.10
2023-04-15T03:31:00.632Z,7.25
2023-04-15T03:33:27.679Z,6.85
2023-04-15T03:35:54.649Z,7.20
2023-04-15T03:38:21.592Z,6.80
2023-04-15T03:40:48.577Z,6.72
2023-04-15T03:43:15.614Z,7.05
2023-04-15T03:45:42.490Z,7.00
2023-04-15T03:48:17.349Z,7.18
2023-04-15T03:50:45.399Z,7.38
2023-04-15T03:53:12.278Z,7.40
2023-04-15T03:55:39.131Z,7.37
2023-04-15T03:58:06.066Z,7.50
2023-04-15T04:00:33.207Z,7.68
2023-04-15T04:03:00.230Z,7.55
2023-04-15T04:05:27.268Z,7.90
2023-04-15T04:07:54.018Z,7.28
2023-04-15T04:10:20.889Z,8.63
2023-04-15T04:12:47.813Z,7.80
2023-04-15T04:15:14.690Z,7.15
2023-04-15T04:17:41.653Z,7.68
2023-04-15T04:20:08.939Z,7.30
2023-04-15T04:22:40.070Z,7.40
2023-04-15T04:25:08.649Z,7.97
2023-04-15T04:27:35.643Z,7.30
2023-04-15T04:30:02.441Z,7.57
2023-04-15T04:32:29.336Z,7.43
2023-04-15T04:34:56.467Z,8.02
2023-04-15T04:37:23.700Z,7.88
2023-04-15T04:39:50.673Z,8.00
2023-04-15T04:42:17.536Z,7.90
2023-04-15T04:44:44.502Z,8.05
2023-04-15T04:47:11.533Z,8.00
2023-04-15T04:49:38.409Z,8.02
2023-04-15T04:52:05.313Z,7.75
2023-04-15T04:54:32.097Z,7.65
2023-04-15T04:56:59.077Z,7.85
2023-04-15T04:59:26.120Z,7.90
2023-04-15T05:01:53.262Z,8.18
2023-04-15T05:04:20.052Z,8.32
2023-04-15T05:06:47.021Z,8.38
2023-04-15T05:09:13.818Z,8.70
2023-04-15T05:11:40.826Z,7.75
2023-04-15T05:14:07.938Z,8.40
2023-04-15T05:16:34.863Z,7.82
2023-04-15T05:19:01.801Z,8.13
2023-04-15T05:21:29.028Z,8.13
2023-04-15T05:23:55.958Z,7.80
2023-04-15T05:26:24.308Z,8.13
2023-04-15T05:28:51.085Z,8.18
2023-04-15T05:31:18.132Z,8.80
2023-04-15T05:33:45.026Z,8.20
2023-04-15T05:36:12.125Z,8.63
2023-04-15T05:38:38.954Z,8.00
2023-04-15T05:41:06.032Z,8.32
2023-04-15T05:43:32.978Z,8.13
2023-04-15T05:45:59.872Z,8.20
2023-04-15T05:48:26.657Z,8.18
2023-04-15T05:50:53.678Z,7.70
2023-04-15T05:53:20.757Z,7.07
2023-04-15T05:55:47.588Z,7.28
2023-04-15T05:58:14.573Z,7.05
2023-04-15T06:00:41.447Z,7.03
2023-04-15T06:03:08.361Z,7.13
2023-04-15T06:05:35.750Z,6.57
2023-04-15T06:08:02.693Z,6.70
2023-04-15T06:10:29.656Z,7.00
2023-04-15T06:12:56.619Z,6.03
2023-04-15T06:15:23.391Z,6.05
2023-04-15T06:17:50.309Z,7.00
2023-04-15T06:20:17.283Z,6.18
2023-04-15T06:22:44.117Z,6.75
2023-04-15T06:25:11.154Z,6.65
2023-04-15T06:27:38.228Z,6.07
2023-04-15T06:30:06.555Z,6.18
2023-04-15T06:32:33.715Z,6.43
2023-04-15T06:35:00.869Z,5.60
2023-04-15T06:37:27.720Z,5.90
2023-04-15T06:39:54.560Z,6.25
2023-04-15T06:42:21.633Z,5.88
2023-04-15T06:44:48.483Z,5.57
2023-04-15T06:47:15.357Z,5.82
2023-04-15T06:49:43.221Z,5.55
2023-04-15T06:52:11.299Z,6.18
2023-04-15T06:54:38.377Z,5.68
2023-04-15T06:57:05.906Z,5.43
2023-04-15T06:59:32.833Z,5.80
2023-04-15T07:01:59.750Z,5.75
2023-04-15T07:04:26.656Z,5.60
2023-04-15T07:06:55.528Z,5.93
2023-04-15T07:09:23.452Z,5.70
2023-04-15T07:11:50.447Z,5.75
2023-04-15T07:14:17.641Z,5.80
2023-04-15T07:16:44.554Z,6.00
2023-04-15T07:19:11.729Z,5.78
2023-04-15T07:21:41.289Z,6.03
2023-04-15T07:24:10.452Z,6.10
2023-04-15T07:26:37.700Z,5.88
2023-04-15T07:29:04.485Z,5.90
2023-04-15T07:31:31.737Z,6.07
2023-04-15T07:33:58.732Z,5.80
2023-04-15T07:36:25.657Z,5.97
2023-04-15T07:38:52.806Z,6.30
2023-04-15T07:41:20.486Z,5.50
2023-04-15T07:43:48.796Z,5.28
2023-04-15T07:46:16.129Z,5.00
2023-04-15T07:48:43.396Z,5.38
2023-04-15T07:51:10.917Z,5.00
2023-04-15T07:53:38.157Z,4.70
2023-04-15T07:56:05.834Z,4.88
2023-04-15T07:58:32.704Z,4.38
2023-04-15T08:00:59.543Z,4.75
2023-04-15T08:03:26.786Z,5.10
2023-04-15T08:05:54.442Z,4.80
2023-04-15T08:08:21.227Z,4.30
2023-04-15T08:10:48.634Z,4.50
2023-04-15T08:13:17.093Z,3.90
2023-04-15T08:15:44.158Z,4.10
2023-04-15T08:18:11.351Z,4.32
2023-04-15T08:20:38.565Z,3.90
2023-04-15T08:23:05.407Z,3.47
2023-04-15T08:25:32.365Z,3.70
2023-04-15T08:27:59.266Z,3.90
2023-04-15T08:30:26.180Z,4.28
2023-04-15T08:32:53.087Z,3.75
2023-04-15T08:35:20.065Z,3.20
2023-04-15T08:37:46.839Z,3.60
2023-04-15T08:40:14.211Z,3.40
2023-04-15T08:42:52.548Z,3.30
2023-04-15T08:45:20.664Z,3.20
2023-04-15T08:47:51.029Z,2.90
2023-04-15T08:50:18.782Z,2.95
2023-04-15T08:52:45.933Z,3.60
2023-04-15T08:55:14.369Z,3.35
2023-04-15T08:57:41.366Z,3.37
2023-04-15T09:00:09.461Z,2.35
2023-04-15T09:02:36.908Z,2.60
2023-04-15T09:05:06.626Z,2.90
2023-04-15T09:07:35.928Z,2.67
2023-04-15T09:10:04.386Z,2.20
2023-04-15T09:12:31.723Z,2.20
2023-04-15T09:14:59.541Z,2.15
2023-04-15T09:17:27.791Z,1.98
2023-04-15T09:20:11.021Z,2.30
2023-04-15T09:22:38.692Z,2.50
2023-04-15T09:25:26.529Z,2.83
2023-04-15T09:27:59.175Z,2.90
2023-04-15T09:30:27.464Z,2.83
2023-04-15T09:33:08.787Z,3.15
2023-04-15T09:35:36.897Z,3.50
2023-04-15T09:38:03.747Z,3.05
2023-04-15T09:40:37.748Z,3.10
2023-04-15T09:43:06.204Z,3.03
2023-04-15T09:45:34.429Z,1.80
2023-04-15T09:48:17.433Z,1.67
2023-04-15T09:50:44.744Z,2.03
2023-04-15T09:53:15.609Z,1.98
2023-04-15T09:55:52.092Z,1.92
2023-04-15T09:58:23.800Z,1.85
2023-04-15T10:00:52.644Z,2.15
2023-04-15T10:03:22.112Z,2.00
2023-04-15T10:05:51.190Z,1.67
2023-04-15T10:08:21.785Z,1.70
2023-04-15T10:10:49.616Z,2.20
2023-04-15T10:13:19.180Z,2.10
2023-04-15T10:15:57.468Z,2.38
2023-04-15T10:18:27.871Z,2.33
2023-04-15T10:20:56.020Z,2.90
2023-04-15T10:23:24.576Z,2.85
2023-04-15T10:25:54.422Z,2.70
2023-04-15T10:28:24.916Z,2.20
2023-04-15T10:30:52.729Z,2.10
2023-04-15T10:33:24.553Z,1.83
2023-04-15T10:35:53.329Z,2.00
2023-04-15T10:38:35.075Z,2.10
2023-04-15T10:41:23.767Z,1.92
2023-04-15T10:43:59.460Z,1.70
2023-04-15T10:46:41.594Z,1.80
2023-04-15T10:49:24.297Z,1.88
2023-04-15T10:51:58.324Z,1.80
2023-04-15T10:54:25.273Z,1.60
2023-04-15T10:57:07.601Z,1.60
2023-04-15T10:59:58.803Z,2.05
2023-04-15T11:02:47.575Z,2.08
2023-04-15T11:05:16.415Z,2.10
2023-04-15T11:07:49.553Z,1.60
2023-04-15T11:10:25.669Z,2.15
2023-04-15T11:12:54.853Z,1.90
2023-04-15T11:15:43.028Z,1.70
2023-04-15T11:18:12.754Z,1.90
2023-04-15T11:20:41.488Z,1.92
2023-04-15T11:23:15.265Z,2.20
2023-04-15T11:25:43.627Z,2.20
2023-04-15T11:28:12.493Z,2.45
2023-04-15T11:30:40.809Z,2.22
2023-04-15T11:33:09.434Z,1.92
2023-04-15T11:35:36.682Z,2.03
2023-04-15T11:38:12.101Z,2.10
2023-04-15T11:40:39.484Z,1.70
2023-04-15T11:43:08.555Z,1.60
2023-04-15T11:45:37.076Z,1.63
2023-04-15T11:48:11.469Z,1.50
2023-04-15T11:50:41.274Z,1.30
2023-04-15T11:53:13.214Z,1.65
2023-04-15T11:55:48.560Z,1.40
2023-04-15T11:58:17.982Z,1.17
2023-04-15T12:00:48.662Z,1.10
2023-04-15T12:03:20.218Z,1.20
2023-04-15T12:06:24.794Z,1.30
2023-04-15T12:08:59.161Z,1.10
2023-04-15T12:11:44.891Z,1.00
2023-04-15T12:14:29.524Z,1.10
2023-04-15T12:17:02.923Z,0.90
2023-04-15T12:19:32.509Z,1.13
2023-04-15T12:22:01.811Z,1.13
2023-04-15T12:24:31.053Z,1.13
2023-04-15T12:27:01.959Z,1.15
2023-04-15T12:29:30.090Z,1.30
2023-04-15T12:31:59.112Z,1.10
2023-04-15T12:34:27.092Z,1.00
2023-04-15T12:36:54.702Z,1.23
2023-04-15T12:39:26.851Z,1.10
2023-04-15T12:41:55.308Z,1.00
2023-04-15T12:44:25.058Z,1.10
2023-04-15T12:46:55.587Z,1.23
2023-04-15T12:49:23.863Z,1.13
2023-04-15T12:51:53.043Z,1.30
2023-04-15T12:54:20.491Z,1.30
2023-04-15T12:56:48.896Z,1.50
2023-04-15T12:59:17.754Z,1.40
2023-04-15T13:01:45.478Z,1.30
2023-04-15T13:04:12.590Z,1.20
2023-04-15T13:06:39.570Z,1.33
2023-04-15T13:09:06.632Z,1.02
2023-04-15T13:11:34.375Z,1.00
2023-04-15T13:14:06.102Z,1.27
2023-04-15T13:16:34.313Z,1.10
2023-04-15T13:19:02.333Z,1.30
2023-04-15T13:21:29.207Z,1.38
2023-04-15T13:23:56.211Z,1.52
2023-04-15T13:26:23.043Z,1.40
2023-04-15T13:28:49.934Z,1.30
2023-04-15T13:31:16.804Z,1.50
2023-04-15T13:33:43.756Z,1.60
2023-04-15T13:36:10.628Z,1.35
2023-04-15T13:38:37.635Z,1.10
2023-04-15T13:41:04.470Z,1.40
2023-04-15T13:43:33.619Z,1.13
2023-04-15T13:46:00.681Z,1.10
2023-04-15T13:48:27.525Z,1.02
2023-04-15T13:50:54.374Z,1.10
2023-04-15T13:53:21.229Z,1.13
2023-04-15T13:56:00.952Z,1.30
2023-04-15T13:58:27.856Z,1.20
2023-04-15T14:00:54.630Z,1.10
2023-04-15T14:03:21.981Z,0.80
2023-04-15T14:05:53.432Z,0.90
2023-04-15T14:08:20.372Z,0.95
2023-04-15T14:10:48.673Z,1.10
2023-04-15T14:13:15.714Z,1.00
2023-04-15T14:15:42.551Z,1.17
2023-04-15T14:18:09.930Z,0.90
2023-04-15T14:20:36.986Z,1.02
2023-04-15T14:23:04.652Z,0.98
2023-04-15T14:25:33.992Z,0.83
2023-04-15T14:28:02.076Z,1.07
2023-04-15T14:30:28.999Z,1.00
2023-04-15T14:32:55.953Z,0.90
2023-04-15T14:35:24.540Z,0.85
2023-04-15T14:37:51.548Z,0.90
2023-04-15T14:40:19.143Z,0.95
2023-04-15T14:42:46.738Z,1.00
2023-04-15T14:45:13.609Z,1.02
2023-04-15T14:47:41.070Z,1.17
2023-04-15T14:50:08.475Z,1.07
2023-04-15T14:52:38.886Z,0.90
2023-04-15T14:55:10.397Z,1.20
2023-04-15T14:57:41.381Z,1.00
2023-04-15T15:00:10.437Z,0.90
2023-04-15T15:02:40.541Z,0.90
2023-04-15T15:05:08.741Z,1.10
2023-04-15T15:07:37.279Z,2.10
2023-04-15T15:10:05.190Z,1.30
2023-04-15T15:12:33.185Z,2.38
2023-04-15T15:15:01.597Z,1.30
2023-04-15T15:17:30.491Z,0.93
2023-04-15T15:19:57.804Z,1.02
2023-04-15T15:22:26.130Z,1.02
2023-04-15T15:24:53.514Z,0.85
2023-04-15T15:27:20.646Z,1.10
2023-04-15T15:29:47.641Z,1.07
2023-04-15T15:32:14.623Z,1.00
2023-04-15T15:34:41.413Z,1.08
2023-04-15T15:37:08.226Z,1.30
2023-04-15T15:39:35.584Z,1.20
2023-04-15T15:42:02.592Z,1.20
2023-04-15T15:44:29.729Z,1.10
2023-04-15T15:46:56.768Z,1.10
2023-04-15T15:49:25.376Z,1.10
2023-04-15T15:51:52.256Z,0.70
2023-04-15T15:54:19.163Z,1.30
2023-04-15T15:56:45.929Z,1.45
2023-04-15T15:59:12.826Z,0.93
2023-04-15T16:01:39.947Z,1.00
2023-04-15T16:04:07.421Z,1.23
2023-04-15T16:06:35.356Z,1.20
2023-04-15T16:09:02.817Z,0.98
2023-04-15T16:11:30.021Z,1.20
2023-04-15T16:13:56.949Z,1.13
2023-04-15T16:16:24.363Z,1.00
2023-04-15T16:18:51.596Z,1.15
2023-04-15T16:21:19.525Z,1.10
2023-04-15T16:23:46.725Z,1.20
2023-04-15T16:26:13.739Z,1.17
2023-04-15T16:28:40.804Z,1.05
2023-04-15T16:31:07.769Z,1.30
2023-04-15T16:33:34.590Z,1.40
2023-04-15T16:36:01.446Z,1.30
2023-04-15T16:38:28.330Z,1.42
2023-04-15T16:40:58.700Z,1.00
2023-04-15T16:43:26.019Z,1.03
2023-04-15T16:45:53.014Z,1.03
2023-04-15T16:48:20.696Z,1.73
2023-04-15T16:50:48.883Z,1.47
2023-04-15T16:53:16.209Z,1.70
2023-04-15T16:55:43.140Z,1.70
2023-04-15T16:58:09.975Z,1.75
2023-04-15T17:00:37.120Z,1.58
2023-04-15T17:03:05.547Z,1.42
2023-04-15T17:05:32.867Z,1.42
2023-04-15T17:07:59.990Z,1.25
2023-04-15T17:10:27.024Z,1.05
2023-04-15T17:12:56.327Z,1.08
2023-04-15T17:15:23.636Z,1.60
2023-04-15T17:17:50.558Z,1.00
2023-04-15T17:20:17.587Z,1.00
2023-04-15T17:22:44.405Z,1.30
2023-04-15T17:25:11.375Z,1.23
2023-04-15T17:27:38.719Z,1.10
2023-04-15T17:30:07.327Z,1.20
2023-04-15T17:32:34.895Z,1.20
2023-04-15T17:35:05.889Z,1.10
2023-04-15T17:37:33.909Z,1.00
2023-04-15T17:40:00.918Z,0.90
2023-04-15T17:42:27.767Z,0.98
2023-04-15T17:44:54.551Z,1.30
2023-04-15T17:47:21.467Z,1.20
2023-04-15T17:49:48.251Z,0.90
2023-04-15T17:52:15.048Z,1.40
2023-04-15T17:54:41.929Z,1.08
2023-04-15T17:57:09.701Z,1.15
2023-04-15T17:59:36.707Z,1.13
2023-04-15T18:02:03.663Z,1.10
2023-04-15T18:04:30.882Z,1.20
2023-04-15T18:06:58.085Z,1.30
2023-04-15T18:09:24.959Z,1.30
2023-04-15T18:11:51.741Z,1.15
2023-04-15T18:14:32.954Z,1.38
2023-04-15T18:17:05.049Z,1.40
2023-04-15T18:19:32.204Z,1.20
2023-04-15T18:22:03.228Z,1.50
2023-04-15T18:24:30.544Z,1.15
2023-04-15T18:26:57.741Z,1.30
2023-04-15T18:29:25.345Z,1.30
2023-04-15T18:31:52.760Z,1.42
2023-04-15T18:34:19.585Z,1.58
2023-04-15T18:36:46.578Z,1.20
2023-04-15T18:39:13.412Z,1.13
2023-04-15T18:41:40.329Z,1.00
2023-04-15T18:44:07.594Z,1.27
2023-04-15T18:46:34.475Z,1.20
2023-04-15T18:49:01.526Z,1.25
2023-04-15T18:51:28.372Z,1.30
2023-04-15T18:53:55.284Z,1.30
2023-04-15T18:56:22.153Z,1.48
2023-04-15T18:59:08.975Z,1.70
2023-04-15T19:01:36.100Z,1.30
2023-04-15T19:04:03.355Z,1.20
2023-04-15T19:06:30.986Z,1.15
2023-04-15T19:08:58.602Z,1.00
2023-04-15T19:11:26.276Z,1.20
2023-04-15T19:13:53.236Z,1.02
2023-04-15T19:16:20.411Z,1.17
2023-04-15T19:18:47.351Z,1.33
2023-04-15T19:21:14.840Z,1.17
2023-04-15T19:23:43.063Z,1.23
2023-04-15T19:26:11.621Z,1.58
2023-04-15T19:28:38.725Z,1.35
2023-04-15T19:31:06.097Z,1.23
2023-04-15T19:33:33.939Z,1.33
2023-04-15T19:36:05.827Z,1.38
2023-04-15T19:38:33.594Z,1.40
2023-04-15T19:41:00.389Z,1.10
2023-04-15T19:43:27.253Z,1.33
2023-04-15T19:45:54.741Z,1.10
2023-04-15T19:48:24.355Z,1.10
2023-04-15T19:50:51.664Z,1.10
2023-04-15T19:53:18.757Z,1.17
2023-04-15T19:55:47.011Z,1.00
2023-04-15T19:58:13.905Z,1.23
2023-04-15T20:00:40.889Z,1.17
2023-04-15T20:03:08.055Z,1.20
2023-04-15T20:05:35.616Z,1.40
2023-04-15T20:08:03.108Z,1.30
2023-04-15T20:10:31.783Z,1.58
2023-04-15T20:12:58.966Z,1.07
2023-04-15T20:15:26.154Z,1.40
2023-04-15T20:17:53.222Z,2.05
2023-04-15T20:20:20.718Z,1.60
2023-04-15T20:22:47.829Z,1.13
2023-04-15T20:25:14.852Z,1.30
2023-04-15T20:27:41.673Z,1.60
2023-04-15T20:30:09.168Z,1.58
2023-04-15T20:32:36.432Z,1.50
2023-04-15T20:35:04.742Z,1.60
2023-04-15T20:37:33.666Z,1.60
2023-04-15T20:40:01.023Z,1.30
2023-04-15T20:42:27.921Z,1.20
2023-04-15T20:44:54.966Z,1.43
2023-04-15T20:47:21.960Z,1.40
2023-04-15T20:49:49.060Z,1.70
2023-04-15T20:52:16.378Z,1.20
2023-04-15T20:54:43.357Z,1.40
2023-04-15T20:57:10.228Z,1.45
2023-04-15T20:59:37.129Z,1.40
2023-04-15T21:02:04.316Z,1.37
2023-04-15T21:04:31.326Z,1.60
2023-04-15T21:06:58.087Z,1.20
2023-04-15T21:09:25.446Z,1.43
2023-04-15T21:12:01.051Z,1.67
2023-04-15T21:14:29.001Z,1.33
2023-04-15T21:16:58.214Z,1.50
2023-04-15T21:19:25.159Z,1.43
2023-04-15T21:21:52.785Z,1.70
2023-04-15T21:24:19.616Z,1.33
2023-04-15T21:26:46.351Z,1.65
2023-04-15T21:29:13.476Z,1.50
2023-04-15T21:31:40.774Z,1.67
2023-04-15T21:34:07.851Z,1.67
2023-04-15T21:36:35.042Z,1.85
2023-04-15T21:39:01.944Z,1.70
2023-04-15T21:41:28.843Z,1.60
2023-04-15T21:43:55.856Z,1.70
2023-04-15T21:46:25.650Z,1.60
2023-04-15T21:48:59.700Z,1.90
2023-04-15T21:51:26.940Z,1.80
2023-04-15T21:53:53.899Z,1.75
2023-04-15T21:56:23.125Z,1.93
2023-04-15T21:58:50.303Z,1.80
2023-04-15T22:01:17.477Z,1.83
2023-04-15T22:03:44.715Z,2.00
2023-04-15T22:06:13.653Z,1.75
2023-04-15T22:08:55.017Z,2.00
2023-04-15T22:11:28.512Z,1.85
2023-04-15T22:13:57.291Z,1.80
2023-04-15T22:16:27.411Z,1.80
2023-04-15T22:18:55.346Z,1.90
2023-04-15T22:21:22.599Z,1.80
2023-04-15T22:23:49.865Z,2.10
2023-04-15T22:26:16.818Z,1.85
2023-04-15T22:28:43.639Z,1.92
2023-04-15T22:31:10.701Z,1.73
2023-04-15T22:33:38.975Z,2.00
2023-04-15T22:36:06.255Z,1.95
2023-04-15T22:38:33.470Z,2.20
2023-04-15T22:41:00.589Z,2.07
2023-04-15T22:43:27.767Z,1.60
2023-04-15T22:45:55.193Z,2.05
2023-04-15T22:48:22.917Z,1.80
2023-04-15T22:50:50.135Z,1.98
2023-04-15T22:53:17.801Z,1.70
2023-04-15T22:55:46.668Z,2.22
2023-04-15T22:58:14.137Z,2.00
2023-04-15T23:00:40.920Z,2.03
2023-04-15T23:03:08.351Z,2.10
2023-04-15T23:05:35.350Z,2.20
2023-04-15T23:08:03.162Z,2.22
2023-04-15T23:10:30.038Z,2.40
2023-04-15T23:12:57.564Z,2.28
2023-04-15T23:15:24.907Z,2.42
2023-04-15T23:17:52.021Z,2.25
2023-04-15T23:20:18.819Z,3.33
2023-04-15T23:22:45.922Z,3.00
2023-04-15T23:25:12.795Z,3.10
2023-04-15T23:27:39.572Z,2.90
2023-04-15T23:30:07.141Z,2.80
2023-04-15T23:32:33.985Z,2.50
2023-04-15T23:35:01.035Z,2.80
2023-04-15T23:37:29.472Z,2.67
2023-04-15T23:39:56.530Z,2.40
2023-04-15T23:42:24.197Z,2.53
2023-04-15T23:44:51.133Z,3.00
2023-04-15T23:47:18.032Z,2.30
2023-04-15T23:49:45.082Z,2.92
2023-04-15T23:52:12.001Z,2.40
2023-04-15T23:54:38.933Z,2.33
2023-04-15T23:57:05.922Z,2.28
2023-04-15T23:59:32.816Z,2.35
